Terminal Aerodrome Forecast
Issued by NWS Quad Cities IA IL

Home | Current Version | Previous Version | Text Only | Print | Product List | Glossary On
Versions: 1 2 3 4 5 6 7 8 9 10 11 12 13 14 15 16 17 18 19 20 21 22 23 24 25 26 27 28 29 30 31 32 33 34 35
000
FTUS43 KDVN 170147 AAA
TAFMLI
TAF AMD
KMLI 170147Z 1702/1724 09006KT 2SM -DZ BR OVC005
     FM170300 11005KT 1/2SM -DZ FG OVC003
      TEMPO 1703/1706 2SM -RA BR OVC005
     FM171300 28007KT 2SM BR OVC004
     FM171600 29008KT 5SM BR OVC007=

USA.gov is the U.S. government's official web portal to all federal, state and local government web resources and services.